Time;durP1;ratioP1;P1;durP2;ratioP2;P2;SDS_P1;SDS_P2;PMS_P1;PMS_P2;Temp;Humidity;BMP_temperature;BMP_pressure;BME280_temperature;BME280_humidity;BME280_pressure;Samples;Min_cycle;Max_cycle;Signal;HPM_P1;HPM_P2
2023/08/23 00:00:14;;;;;;;24.10;19.70;;;;;;;18.13;72.53;101423.28;681894;29;1216;-82
2023/08/23 00:00:34;;;;;;;24.58;19.90;;;;;;;18.08;72.57;101423.22;683724;28;1259;-82
2023/08/23 00:00:55;;;;;;;24.23;19.43;;;;;;;18.02;72.72;101399.41;682485;29;1005;-81
2023/08/23 00:01:15;;;;;;;22.17;19.13;;;;;;;18.05;72.55;101414.41;685591;28;1210;-81
2023/08/23 00:01:36;;;;;;;22.60;19.57;;;;;;;18.06;72.80;101417.06;684680;28;1087;-82
2023/08/23 00:01:57;;;;;;;21.90;18.95;;;;;;;18.09;72.57;101421.50;687080;28;1446;-81
2023/08/23 00:02:18;;;;;;;25.30;19.57;;;;;;;18.13;72.38;101427.69;684906;28;1377;-82
2023/08/23 00:02:39;;;;;;;25.23;19.70;;;;;;;18.09;72.52;101422.34;685138;28;1174;-81
2023/08/23 00:03:00;;;;;;;25.50;20.45;;;;;;;18.08;72.50;101415.31;686403;28;1457;-82
2023/08/23 00:03:21;;;;;;;23.88;20.38;;;;;;;18.16;72.59;101433.00;682504;29;1281;-80
2023/08/23 00:03:41;;;;;;;22.73;19.98;;;;;;;18.08;72.64;101414.44;683472;28;1301;-82
2023/08/23 00:04:02;;;;;;;23.85;18.42;;;;;;;18.05;72.63;101410.03;679807;29;1801;-82
2023/08/23 00:04:23;;;;;;;20.80;16.57;;;;;;;18.11;72.53;101422.38;679964;29;1059;-83
2023/08/23 00:04:43;;;;;;;22.55;16.83;;;;;;;18.08;72.62;101420.59;688209;28;1313;-81
2023/08/23 00:05:04;;;;;;;24.15;18.23;;;;;;;18.05;72.63;101409.13;690248;28;1726;-81
2023/08/23 00:05:25;;;;;;;26.17;19.10;;;;;;;18.04;72.64;101413.53;687854;28;1462;-81
2023/08/23 00:05:45;;;;;;;23.47;19.17;;;;;;;18.08;72.64;101420.59;688771;28;1306;-81
2023/08/23 00:06:06;;;;;;;21.45;19.00;;;;;;;18.01;72.68;101417.91;685514;28;1264;-81
2023/08/23 00:06:27;;;;;;;21.13;18.23;;;;;;;18.02;72.60;101417.03;682741;28;1327;-81
2023/08/23 00:06:48;;;;;;;20.50;17.35;;;;;;;18.03;72.45;101408.25;674908;29;1389;-81
2023/08/23 00:07:09;;;;;;;18.23;15.93;;;;;;;17.98;72.71;101402.94;682018;29;1232;-81
2023/08/23 00:07:30;;;;;;;20.00;16.73;;;;;;;18.02;72.60;101414.41;687050;28;1680;-83
2023/08/23 00:07:50;;;;;;;20.67;17.15;;;;;;;18.03;72.81;101422.34;688077;28;1922;-82
2023/08/23 00:08:11;;;;;;;20.98;17.98;;;;;;;17.97;72.72;101403.81;683941;28;1022;-81
2023/08/23 00:08:32;;;;;;;20.45;18.13;;;;;;;18.01;72.78;101417.91;679911;29;1802;-82
2023/08/23 00:08:52;;;;;;;22.50;19.00;;;;;;;17.99;72.86;101411.72;682642;29;1368;-83
2023/08/23 00:09:16;;;;;;;23.70;19.52;;;;;;;18.06;72.77;101422.34;689574;28;1311;-81
2023/08/23 00:09:37;;;;;;;22.85;19.85;;;;;;;18.01;72.73;101413.50;686978;28;1790;-81
2023/08/23 00:09:57;;;;;;;24.70;19.77;;;;;;;18.01;72.66;101417.91;685349;28;1169;-81
2023/08/23 00:10:18;;;;;;;24.27;20.02;;;;;;;17.96;72.74;101404.69;685074;28;1219;-80
2023/08/23 00:10:39;;;;;;;22.02;18.85;;;;;;;17.99;72.84;101420.53;684771;28;1852;-83
2023/08/23 00:10:59;;;;;;;19.43;17.43;;;;;;;17.93;72.67;101408.19;682651;29;1369;-83
2023/08/23 00:11:20;;;;;;;19.63;17.40;;;;;;;17.91;72.79;101402.00;679812;29;1204;-81
2023/08/23 00:11:40;;;;;;;19.67;17.58;;;;;;;17.96;72.81;101415.25;679479;29;1583;-82
2023/08/23 00:12:01;;;;;;;19.53;17.40;;;;;;;17.99;72.69;101415.25;684865;28;1756;-81
2023/08/23 00:12:22;;;;;;;18.38;16.45;;;;;;;17.94;72.95;101417.88;685116;28;959;-81
2023/08/23 00:12:43;;;;;;;20.30;17.35;;;;;;;17.88;72.64;101401.09;686837;28;1291;-82
2023/08/23 00:13:03;;;;;;;20.50;17.80;;;;;;;17.91;72.77;101409.03;684759;28;1961;-81
2023/08/23 00:13:24;;;;;;;21.08;17.48;;;;;;;17.94;72.68;101416.97;685040;28;1249;-82
2023/08/23 00:13:46;;;;;;;19.30;16.52;;;;;;;17.90;72.71;101412.56;689367;28;1154;-81
2023/08/23 00:14:07;;;;;;;18.05;15.65;;;;;;;17.91;72.83;101411.69;680799;29;1472;-81
2023/08/23 00:14:27;;;;;;;18.13;16.23;;;;;;;17.93;72.90;101421.38;684309;29;1120;-82
2023/08/23 00:14:48;;;;;;;21.20;16.93;;;;;;;17.92;72.85;101418.72;684500;29;1215;-81
2023/08/23 00:15:09;;;;;;;22.00;17.33;;;;;;;17.93;72.89;101417.84;689586;28;1629;-81
2023/08/23 00:15:29;;;;;;;25.52;18.15;;;;;;;17.82;72.94;101399.28;688472;28;990;-81
2023/08/23 00:15:50;;;;;;;24.67;18.87;;;;;;;17.89;72.90;101409.00;681870;28;1563;-81
2023/08/23 00:16:11;;;;;;;23.52;19.00;;;;;;;17.87;72.89;101405.47;688080;28;1831;-81
2023/08/23 00:16:31;;;;;;;22.40;18.58;;;;;;;17.93;72.74;101423.13;685602;28;1175;-81
2023/08/23 00:17:04;;;;;;;21.73;17.10;;;;;;;17.94;73.02;101422.25;685405;28;1158;-82
2023/08/23 00:17:25;;;;;;;22.33;17.20;;;;;;;17.87;72.98;101404.59;677049;29;1595;-82
2023/08/23 00:17:45;;;;;;;21.60;18.55;;;;;;;17.96;72.82;101423.16;683900;28;1310;-81
2023/08/23 00:18:06;;;;;;;23.67;19.30;;;;;;;17.91;72.60;101416.97;688156;28;1466;-81
2023/08/23 00:18:27;;;;;;;23.08;18.73;;;;;;;17.87;72.92;101409.88;687837;28;1612;-81
2023/08/23 00:18:49;;;;;;;23.35;18.45;;;;;;;17.91;72.80;101424.88;690370;28;1131;-81
2023/08/23 00:19:10;;;;;;;22.52;18.17;;;;;;;17.88;72.83;101414.31;687380;28;1364;-81
2023/08/23 00:19:31;;;;;;;21.40;17.73;;;;;;;17.85;73.15;101412.50;684640;28;1576;-81
2023/08/23 00:19:51;;;;;;;20.05;17.80;;;;;;;17.84;72.76;101408.13;686296;28;1070;-81
2023/08/23 00:20:12;;;;;;;21.02;18.75;;;;;;;17.81;72.88;101406.31;685502;28;1092;-81
2023/08/23 00:20:33;;;;;;;22.30;19.90;;;;;;;17.87;72.74;101418.69;680483;29;1056;-81
2023/08/23 00:20:54;;;;;;;22.87;20.43;;;;;;;17.84;72.80;101413.41;682645;29;1188;-81
2023/08/23 00:21:14;;;;;;;26.83;20.42;;;;;;;17.86;72.76;101416.03;687893;28;1214;-80
2023/08/23 00:21:35;;;;;;;27.90;20.38;;;;;;;17.86;72.87;101416.03;688249;28;1108;-81
2023/08/23 00:21:56;;;;;;;28.38;20.35;;;;;;;17.85;72.72;101419.53;685013;28;1259;-81
2023/08/23 00:22:16;;;;;;;23.60;21.03;;;;;;;17.86;72.70;101421.31;688286;28;1046;-82
2023/08/23 00:22:37;;;;;;;23.48;21.00;;;;;;;17.83;72.67;101422.19;684650;28;1610;-82
2023/08/23 00:22:58;;;;;;;22.83;20.52;;;;;;;17.79;72.76;101408.06;683364;28;1032;-81
2023/08/23 00:23:18;;;;;;;22.50;20.17;;;;;;;17.83;72.83;101421.28;685402;28;1394;-82
2023/08/23 00:23:39;;;;;;;22.98;20.48;;;;;;;17.78;72.86;101406.28;682236;28;1695;-81
2023/08/23 00:24:00;;;;;;;22.98;20.35;;;;;;;17.86;72.73;101418.66;680578;28;1202;-81
2023/08/23 00:24:20;;;;;;;22.50;19.40;;;;;;;17.83;72.56;101413.38;685976;28;1143;-80
2023/08/23 00:24:41;;;;;;;21.25;18.90;;;;;;;17.85;72.63;101422.19;683757;28;1268;-81
2023/08/23 00:25:02;;;;;;;24.10;19.55;;;;;;;17.80;73.00;101409.84;690840;28;1838;-81
2023/08/23 00:25:23;;;;;;;24.85;21.08;;;;;;;17.84;72.91;101420.41;682953;28;1150;-81
2023/08/23 00:25:43;;;;;;;25.13;22.02;;;;;;;17.87;73.05;101423.06;684368;28;1516;-81
2023/08/23 00:26:04;;;;;;;24.33;21.83;;;;;;;17.80;72.92;101414.22;682998;28;1834;-81
2023/08/23 00:26:24;;;;;;;23.80;21.30;;;;;;;17.78;73.16;101410.69;683362;29;1270;-81
2023/08/23 00:26:45;;;;;;;24.10;20.77;;;;;;;17.77;72.99;101409.81;687665;28;1056;-81
2023/08/23 00:27:06;;;;;;;27.10;21.02;;;;;;;17.79;72.97;101416.00;680727;28;1479;-81
2023/08/23 00:27:28;;;;;;;26.23;20.52;;;;;;;17.84;72.84;101425.69;681798;28;1299;-81
2023/08/23 00:27:49;;;;;;;23.33;19.53;;;;;;;17.84;73.03;101421.31;685521;28;1949;-81
2023/08/23 00:28:09;;;;;;;21.35;19.05;;;;;;;17.84;73.05;101423.06;690026;28;1520;-81
2023/08/23 00:28:30;;;;;;;21.63;18.87;;;;;;;17.79;72.85;101418.63;682956;29;1171;-81
2023/08/23 00:28:51;;;;;;;22.85;19.20;;;;;;;17.75;72.97;101411.56;685508;28;1112;-81
2023/08/23 00:29:11;;;;;;;21.67;18.95;;;;;;;17.79;73.18;101420.38;680447;28;1482;-82
2023/08/23 00:29:32;;;;;;;19.90;17.87;;;;;;;17.71;72.95;101404.50;683169;28;1283;-81
2023/08/23 00:30:04;;;;;;;19.20;17.20;;;;;;;17.79;72.98;101423.03;685869;28;868;-81
2023/08/23 00:30:24;;;;;;;22.08;18.13;;;;;;;17.71;73.01;101408.88;687648;28;1209;-81
2023/08/23 00:30:53;;;;;;;21.70;18.67;;;;;;;17.69;73.08;101406.22;686096;28;1061;-80
2023/08/23 00:31:13;;;;;;;22.30;18.92;;;;;;;17.70;72.98;101407.97;687386;28;1406;-81
2023/08/23 00:31:34;;;;;;;24.57;17.93;;;;;;;17.68;73.17;101412.38;685188;28;1173;-83
2023/08/23 00:31:54;;;;;;;25.58;18.35;;;;;;;17.73;72.99;101415.94;682958;29;974;-81
2023/08/23 00:32:15;;;;;;;33.80;18.43;;;;;;;17.75;73.14;101426.50;680073;29;1431;-82
2023/08/23 00:32:36;;;;;;;29.65;18.10;;;;;;;17.64;72.81;101406.19;678906;29;1155;-81
2023/08/23 00:32:56;;;;;;;29.20;17.13;;;;;;;17.70;73.15;101412.38;682377;29;1149;-81
2023/08/23 00:33:17;;;;;;;20.35;17.08;;;;;;;17.63;73.15;101403.50;685378;28;1238;-82
2023/08/23 00:33:38;;;;;;;22.00;17.87;;;;;;;17.60;73.08;101403.50;685371;28;1423;-81
2023/08/23 00:33:58;;;;;;;24.48;19.30;;;;;;;17.66;73.18;101408.84;683764;28;1446;-82
2023/08/23 00:34:19;;;;;;;26.23;19.23;;;;;;;17.69;73.21;101422.03;678086;29;1850;-82
2023/08/23 00:34:40;;;;;;;24.60;19.00;;;;;;;17.63;73.07;101407.06;679461;29;1279;-81
2023/08/23 00:35:02;;;;;;;23.77;18.70;;;;;;;17.60;73.03;101409.69;685101;28;1430;-83
2023/08/23 00:35:23;;;;;;;21.25;18.80;;;;;;;17.67;73.04;101419.41;687155;28;1060;-81
2023/08/23 00:35:43;;;;;;;23.67;18.85;;;;;;;17.62;73.12;101409.66;686322;28;2312;-81
2023/08/23 00:36:04;;;;;;;23.15;18.85;;;;;;;17.63;72.82;101412.31;687824;28;1191;-81
2023/08/23 00:36:25;;;;;;;26.57;19.07;;;;;;;17.58;72.98;101406.13;685270;28;1176;-81
2023/08/23 00:36:46;;;;;;;22.60;18.45;;;;;;;17.64;73.04;101418.50;685173;28;1328;-81
2023/08/23 00:37:07;;;;;;;21.75;18.63;;;;;;;17.59;73.17;101409.66;682545;29;1010;-82
2023/08/23 00:37:28;;;;;;;20.73;18.73;;;;;;;17.60;73.15;101414.06;682613;29;1378;-81
2023/08/23 00:37:48;;;;;;;22.73;19.03;;;;;;;17.59;73.25;101414.94;682236;28;1352;-82
2023/08/23 00:38:09;;;;;;;22.70;18.30;;;;;;;17.58;73.16;101413.16;680114;29;1066;-81
2023/08/23 00:38:30;;;;;;;21.48;17.05;;;;;;;17.64;73.12;101426.44;677505;29;1285;-82
2023/08/23 00:38:50;;;;;;;17.30;15.60;;;;;;;17.55;73.11;101411.38;679557;29;1280;-83
2023/08/23 00:39:11;;;;;;;17.48;15.73;;;;;;;17.59;73.21;101414.94;679537;29;1913;-81
2023/08/23 00:39:32;;;;;;;18.00;16.10;;;;;;;17.57;73.10;101414.03;685518;28;1105;-83
2023/08/23 00:39:53;;;;;;;19.52;17.42;;;;;;;17.53;73.02;101407.84;688008;28;1403;-81
2023/08/23 00:40:14;;;;;;;22.15;18.45;;;;;;;17.53;73.13;101408.72;691045;28;2094;-80
2023/08/23 00:40:34;;;;;;;25.50;19.70;;;;;;;17.51;73.02;101402.53;685365;28;1121;-80
2023/08/23 00:40:55;;;;;;;24.10;18.70;;;;;;;17.51;73.01;101410.47;685291;28;1323;-80
2023/08/23 00:41:17;;;;;;;21.50;18.20;;;;;;;17.51;73.04;101413.09;685594;28;1025;-81
2023/08/23 00:41:44;;;;;;;21.30;18.92;;;;;;;17.51;72.95;101407.81;688174;28;1302;-82
2023/08/23 00:42:05;;;;;;;24.70;19.50;;;;;;;17.58;72.77;101429.88;682747;28;1205;-82
2023/08/23 00:42:25;;;;;;;22.60;19.35;;;;;;;17.49;72.89;101413.94;684522;28;1225;-81
2023/08/23 00:42:48;;;;;;;21.90;19.58;;;;;;;17.59;73.11;101430.75;684897;28;1454;-81
2023/08/23 00:43:14;;;;;;;21.50;19.40;;;;;;;17.47;73.12;101408.69;681862;29;1279;-81
2023/08/23 00:43:35;;;;;;;22.10;19.80;;;;;;;17.50;73.17;101413.06;683005;28;1322;-82
2023/08/23 00:43:56;;;;;;;33.63;20.52;;;;;;;17.56;73.19;101420.19;679803;29;1006;-82
2023/08/23 00:44:17;;;;;;;34.03;19.90;;;;;;;17.53;73.28;101416.63;684128;28;1826;-82
2023/08/23 00:44:38;;;;;;;33.10;20.70;;;;;;;17.46;73.29;101404.25;686339;28;1063;-81
2023/08/23 00:44:59;;;;;;;24.10;21.30;;;;;;;17.53;73.15;101406.06;685020;28;1135;-81
2023/08/23 00:45:19;;;;;;;24.40;21.25;;;;;;;17.46;73.12;101393.69;683817;28;1091;-81
2023/08/23 00:46:12;;;;;;;23.97;21.17;;;;;;;17.60;73.29;101417.59;685521;28;1612;-82
2023/08/23 00:47:08;;;;;;;25.10;21.90;;;;;;;17.49;73.12;101390.19;688907;28;708;-82
2023/08/23 00:47:29;;;;;;;25.25;21.80;;;;;;;17.49;73.38;101392.84;689132;28;1509;-81
2023/08/23 00:47:50;;;;;;;25.92;21.77;;;;;;;17.46;73.21;101382.28;685314;28;1916;-82
2023/08/23 00:48:12;;;;;;;27.92;22.20;;;;;;;17.52;73.31;101404.31;682775;28;1062;-82
2023/08/23 00:48:33;;;;;;;27.08;22.35;;;;;;;17.57;73.42;101406.13;686998;28;1166;-82
2023/08/23 00:48:54;;;;;;;26.73;22.33;;;;;;;17.46;73.34;101388.41;684344;28;1261;-81
2023/08/23 00:49:15;;;;;;;26.88;22.23;;;;;;;17.53;73.30;101397.28;682746;28;1132;-82
2023/08/23 00:49:35;;;;;;;25.77;21.25;;;;;;;17.51;73.36;101397.28;680545;29;1076;-81
2023/08/23 00:49:57;;;;;;;26.45;21.05;;;;;;;17.44;73.35;101384.88;682575;29;1725;-82
2023/08/23 00:50:17;;;;;;;24.40;19.88;;;;;;;17.55;73.31;101408.75;679768;29;1263;-82
2023/08/23 00:50:40;;;;;;;25.38;20.70;;;;;;;17.57;73.37;101407.00;681347;29;1034;-81
2023/08/23 00:51:01;;;;;;;22.77;20.23;;;;;;;17.49;73.27;101400.75;689322;28;1567;-82
2023/08/23 00:51:22;;;;;;;23.03;20.53;;;;;;;17.52;73.31;101406.09;685291;28;1319;-82
2023/08/23 00:51:43;;;;;;;21.65;19.45;;;;;;;17.47;73.29;101398.13;687883;28;1212;-81
2023/08/23 00:52:05;;;;;;;22.23;19.63;;;;;;;17.47;73.54;101405.16;685381;28;1601;-82
2023/08/23 00:52:45;;;;;;;22.27;19.87;;;;;;;17.51;73.42;101413.09;682597;28;979;-81
2023/08/23 00:53:08;;;;;;;22.77;20.17;;;;;;;17.46;73.53;101406.03;687637;28;1473;-81
2023/08/23 00:53:28;;;;;;;25.02;20.20;;;;;;;17.46;73.54;101406.03;684417;28;1111;-81
2023/08/23 00:53:50;;;;;;;27.15;20.80;;;;;;;17.43;73.44;101404.22;684337;28;1229;-82
2023/08/23 00:54:12;;;;;;;25.80;19.73;;;;;;;17.38;73.43;101395.38;682302;29;1903;-81
2023/08/23 00:54:33;;;;;;;23.27;19.40;;;;;;;17.46;73.50;101408.66;679817;29;1210;-81
2023/08/23 00:54:55;;;;;;;20.52;17.83;;;;;;;17.44;73.50;101407.78;685520;28;1077;-82
2023/08/23 00:55:15;;;;;;;19.92;17.38;;;;;;;17.40;73.46;101398.94;687606;28;1300;-81
2023/08/23 00:55:36;;;;;;;20.90;17.02;;;;;;;17.36;73.61;101394.47;688636;28;1173;-81
2023/08/23 00:55:59;;;;;;;21.65;17.10;;;;;;;17.43;73.61;101400.69;690130;28;1064;-83
2023/08/23 00:56:20;;;;;;;24.88;18.35;;;;;;;17.43;73.51;101401.59;685060;28;1837;-81
2023/08/23 00:56:41;;;;;;;25.33;19.38;;;;;;;17.39;73.60;101405.94;684975;28;1347;-81
2023/08/23 00:57:03;;;;;;;23.77;20.10;;;;;;;17.43;73.55;101414.78;688047;28;1625;-81
2023/08/23 00:57:25;;;;;;;23.00;20.67;;;;;;;17.42;73.25;101401.56;687895;28;1383;-81
2023/08/23 00:57:45;;;;;;;23.63;21.33;;;;;;;17.36;73.60;101391.84;687084;28;1386;-82
2023/08/23 00:58:09;;;;;;;23.37;21.07;;;;;;;17.39;73.61;101392.75;685204;28;1231;-81
2023/08/23 00:58:30;;;;;;;22.95;20.55;;;;;;;17.39;73.49;101399.78;680131;29;1011;-82
2023/08/23 00:58:51;;;;;;;22.98;20.58;;;;;;;17.41;73.64;101400.69;685536;28;1034;-82
2023/08/23 00:59:12;;;;;;;22.33;19.92;;;;;;;17.36;73.69;101394.47;682616;29;1326;-81
2023/08/23 00:59:35;;;;;;;22.30;19.15;;;;;;;17.35;73.43;101400.63;677238;29;1351;-81
2023/08/23 00:59:56;;;;;;;23.88;19.48;;;;;;;17.37;73.43;101401.53;682397;28;1264;-81
2023/08/23 01:00:18;;;;;;;28.20;21.00;;;;;;;17.39;73.40;101405.94;685207;28;1163;-81
2023/08/23 01:00:40;;;;;;;26.40;21.13;;;;;;;17.41;73.53;101408.63;689132;28;1230;-81
2023/08/23 01:01:01;;;;;;;26.42;21.27;;;;;;;17.29;73.61;101390.00;687975;28;1439;-81
2023/08/23 01:01:22;;;;;;;23.10;20.60;;;;;;;17.35;73.65;101401.53;686004;28;1006;-81
2023/08/23 01:01:44;;;;;;;22.58;20.15;;;;;;;17.39;73.50;101405.06;688515;28;1736;-81
2023/08/23 01:02:05;;;;;;;22.75;19.92;;;;;;;17.38;73.36;101408.56;685394;28;1471;-82
2023/08/23 01:02:26;;;;;;;22.35;19.92;;;;;;;17.32;73.62;101397.97;685429;28;972;-81
2023/08/23 01:02:47;;;;;;;25.17;21.33;;;;;;;17.33;73.66;101391.84;682876;28;998;-81
2023/08/23 01:03:08;;;;;;;24.70;21.60;;;;;;;17.41;73.60;101416.53;686568;28;1302;-82
2023/08/23 01:03:28;;;;;;;23.92;21.17;;;;;;;17.36;73.68;101395.38;690695;28;1432;-82
2023/08/23 01:03:49;;;;;;;22.90;20.60;;;;;;;17.37;73.38;101396.25;693412;28;1403;-81
2023/08/23 01:04:10;;;;;;;23.00;20.60;;;;;;;17.33;73.52;101386.56;688229;28;1122;-81
2023/08/23 01:04:30;;;;;;;24.33;21.42;;;;;;;17.38;73.62;101403.28;682850;29;1110;-82
2023/08/23 01:04:51;;;;;;;26.08;21.48;;;;;;;17.38;73.59;101398.91;685342;28;1209;-82
2023/08/23 01:05:12;;;;;;;26.50;22.25;;;;;;;17.43;73.76;101401.59;687647;28;1166;-81
2023/08/23 01:05:51;;;;;;;26.98;22.40;;;;;;;17.50;73.68;101415.72;682825;28;1145;-82
2023/08/23 01:06:26;;;;;;;29.25;21.98;;;;;;;17.43;73.74;101405.97;677303;29;1082;-82
2023/08/23 01:07:12;;;;;;;27.70;21.50;;;;;;;17.43;73.49;101406.88;685636;28;1146;-82
2023/08/23 01:07:41;;;;;;;26.10;22.33;;;;;;;17.44;73.53;101400.72;685784;28;1176;-82
2023/08/23 01:08:13;;;;;;;24.05;21.38;;;;;;;17.48;73.52;101413.09;685845;28;1887;-82
2023/08/23 01:08:40;;;;;;;24.48;21.08;;;;;;;17.47;73.42;101416.59;686899;28;1301;-82
2023/08/23 01:09:22;;;;;;;23.20;20.58;;;;;;;17.43;73.42;101409.50;686173;28;1413;-82
2023/08/23 01:10:09;;;;;;;23.75;21.25;;;;;;;17.44;73.57;101418.31;684512;28;1347;-81
2023/08/23 01:10:38;;;;;;;24.70;21.45;;;;;;;17.26;73.53;101391.75;680899;29;1515;-81
2023/08/23 01:11:09;;;;;;;23.92;21.38;;;;;;;17.31;73.45;101398.81;683099;28;1217;-81
2023/08/23 01:11:51;;;;;;;23.40;21.00;;;;;;;17.39;73.38;101420.88;686762;28;955;-82
2023/08/23 01:12:18;;;;;;;23.20;20.70;;;;;;;17.35;73.44;101413.81;684320;28;1705;-80
2023/08/23 01:12:45;;;;;;;22.13;19.33;;;;;;;17.25;73.53;101395.28;696229;28;1490;-81
2023/08/23 01:13:20;;;;;;;20.23;18.15;;;;;;;17.33;73.47;101405.88;687546;28;1359;-81
2023/08/23 01:14:12;;;;;;;23.65;20.25;;;;;;;17.25;73.43;101400.53;685443;28;1212;-80
2023/08/23 01:15:01;;;;;;;26.35;21.45;;;;;;;17.33;73.87;101418.22;676216;29;1226;-81
2023/08/23 01:15:24;;;;;;;22.75;20.30;;;;;;;17.23;73.45;101396.13;673661;29;1097;-81
2023/08/23 01:15:45;;;;;;;24.42;20.48;;;;;;;17.18;73.48;101387.22;685349;28;1227;-81
2023/08/23 01:16:10;;;;;;;26.17;20.60;;;;;;;17.29;73.60;101405.84;684233;28;1535;-81
2023/08/23 01:16:32;;;;;;;28.02;20.48;;;;;;;17.20;73.60;101388.16;691431;28;1212;-81
2023/08/23 01:16:56;;;;;;;28.05;21.20;;;;;;;17.29;73.54;101408.47;684002;28;1782;-81
2023/08/23 01:17:19;;;;;;;29.42;22.60;;;;;;;17.20;73.80;101396.94;680099;29;1521;-81
2023/08/23 01:17:43;;;;;;;25.60;22.38;;;;;;;17.21;73.63;101396.09;679730;29;1485;-82
2023/08/23 01:18:05;;;;;;;23.55;21.02;;;;;;;17.26;73.79;101407.59;680398;29;1546;-81
2023/08/23 01:18:28;;;;;;;23.38;20.48;;;;;;;17.10;73.59;101380.13;682658;29;1498;-81
2023/08/23 01:18:52;;;;;;;24.50;20.35;;;;;;;17.16;73.65;101389.88;680706;29;1140;-81
2023/08/23 01:19:45;;;;;;;26.27;21.10;;;;;;;17.29;73.58;101405.84;686670;28;1197;-81
2023/08/23 01:20:10;;;;;;;31.65;19.75;;;;;;;17.22;73.64;101404.91;693658;28;952;-82
2023/08/23 01:20:31;;;;;;;20.63;18.40;;;;;;;17.22;73.51;101408.41;690214;28;1379;-81
2023/08/23 01:20:53;;;;;;;20.92;18.92;;;;;;;17.16;73.57;101391.63;685746;28;1732;-81
2023/08/23 01:21:19;;;;;;;23.10;20.63;;;;;;;17.20;73.57;101407.47;680193;29;952;-81
2023/08/23 01:21:44;;;;;;;25.77;21.48;;;;;;;17.16;73.71;101397.78;684052;28;1620;-82
2023/08/23 01:22:08;;;;;;;26.25;21.27;;;;;;;17.18;73.77;101403.06;685645;28;862;-82
2023/08/23 01:22:32;;;;;;;24.92;21.58;;;;;;;17.16;73.81;101400.44;685122;28;1809;-82
2023/08/23 01:23:00;;;;;;;22.55;20.15;;;;;;;17.21;73.48;101411.91;685333;28;1240;-81
2023/08/23 01:23:23;;;;;;;19.97;17.77;;;;;;;17.14;73.78;101399.50;686246;28;1232;-81
2023/08/23 01:23:44;;;;;;;18.58;16.48;;;;;;;17.17;73.94;101407.47;684253;28;1549;-82
2023/08/23 01:24:09;;;;;;;19.13;16.75;;;;;;;17.12;73.79;101401.25;685490;28;1188;-81
2023/08/23 01:24:32;;;;;;;20.83;18.20;;;;;;;17.19;73.84;101400.44;694072;28;1786;-81
2023/08/23 01:24:54;;;;;;;26.65;20.48;;;;;;;17.15;73.69;101403.03;689739;28;1116;-82
2023/08/23 01:25:15;;;;;;;26.65;21.05;;;;;;;17.15;73.75;101403.03;685099;28;1373;-81
2023/08/23 01:25:36;;;;;;;23.98;20.75;;;;;;;17.12;73.79;101393.34;689194;28;1460;-81
2023/08/23 01:25:56;;;;;;;21.40;19.20;;;;;;;17.07;73.68;101392.38;689604;28;1053;-80
2023/08/23 01:26:17;;;;;;;21.73;19.10;;;;;;;17.14;73.70;101396.88;688025;28;1087;-81
2023/08/23 01:26:40;;;;;;;20.35;18.15;;;;;;;17.10;73.57;101401.22;680313;29;1164;-81
2023/08/23 01:27:01;;;;;;;21.45;19.23;;;;;;;17.05;73.57;101391.50;682958;28;1514;-81
2023/08/23 01:27:23;;;;;;;21.25;19.13;;;;;;;17.16;73.53;101405.69;687481;28;1146;-81
2023/08/23 01:27:44;;;;;;;23.35;20.02;;;;;;;17.10;73.82;101398.59;688209;28;1197;-82
2023/08/23 01:28:05;;;;;;;24.40;20.55;;;;;;;17.16;73.75;101405.69;689519;28;1988;-81
2023/08/23 01:28:25;;;;;;;25.60;20.85;;;;;;;17.05;73.94;101387.13;685414;28;1139;-80
2023/08/23 01:28:47;;;;;;;24.07;21.37;;;;;;;17.13;73.63;101393.34;687905;28;1277;-80
2023/08/23 01:29:08;;;;;;;23.80;21.30;;;;;;;17.10;73.62;101392.44;683817;28;1253;-81
2023/08/23 01:29:29;;;;;;;24.27;21.77;;;;;;;17.13;73.25;101400.38;687823;28;1541;-81
2023/08/23 01:29:49;;;;;;;26.58;22.65;;;;;;;17.20;73.70;101403.97;685321;28;1306;-81
2023/08/23 01:30:16;;;;;;;26.65;22.20;;;;;;;17.17;73.66;101402.19;679632;29;1253;-81
2023/08/23 01:30:38;;;;;;;24.15;21.73;;;;;;;17.10;73.67;101387.16;682782;29;1054;-81
2023/08/23 01:31:03;;;;;;;23.45;21.02;;;;;;;17.16;73.56;101399.53;679218;29;1325;-82
2023/08/23 01:31:24;;;;;;;24.15;21.65;;;;;;;17.10;73.71;101392.44;687649;28;1511;-81
2023/08/23 01:31:47;;;;;;;26.13;21.55;;;;;;;17.15;73.73;101398.63;688421;28;1261;-81
2023/08/23 01:32:34;;;;;;;24.58;21.35;;;;;;;17.16;73.57;101405.69;682786;28;1242;-81
2023/08/23 01:33:06;;;;;;;24.65;20.98;;;;;;;17.12;73.43;101403.88;684114;28;1517;-81
2023/08/23 01:33:51;;;;;;;26.42;20.65;;;;;;;17.06;73.67;101390.63;687418;28;1394;-82
2023/08/23 01:34:25;;;;;;;22.60;20.38;;;;;;;17.04;73.90;101395.00;679017;29;2053;-81
2023/08/23 01:34:54;;;;;;;24.38;21.58;;;;;;;17.02;73.58;101392.34;684022;28;2285;-81
2023/08/23 01:35:47;;;;;;;24.42;20.77;;;;;;;17.12;73.81;101411.78;683936;28;1421;-81
2023/08/23 01:36:17;;;;;;;21.42;19.15;;;;;;;17.06;73.65;101399.44;676970;29;1379;-81
2023/08/23 01:36:41;;;;;;;22.27;19.95;;;;;;;17.06;73.62;101398.53;684690;28;1267;-81
2023/08/23 01:37:05;;;;;;;22.65;20.27;;;;;;;17.06;73.57;101401.16;684820;28;1221;-81
2023/08/23 01:37:26;;;;;;;22.38;19.88;;;;;;;17.05;73.46;101399.41;682332;28;1237;-81
2023/08/23 01:37:54;;;;;;;21.42;18.98;;;;;;;16.96;73.74;101387.88;684148;28;1738;-81
2023/08/23 01:38:16;;;;;;;19.73;17.50;;;;;;;16.98;73.36;101390.56;684496;28;1138;-81
2023/08/23 01:38:39;;;;;;;19.10;17.10;;;;;;;16.95;73.60;101383.50;683424;28;1429;-81
2023/08/23 01:39:01;;;;;;;20.02;18.13;;;;;;;17.02;73.67;101402.03;682418;28;1641;-81
2023/08/23 01:39:25;;;;;;;21.35;19.25;;;;;;;16.99;73.62;101403.72;685514;28;1111;-82
2023/08/23 01:39:47;;;;;;;23.63;20.83;;;;;;;17.01;73.47;101400.25;687960;28;1124;-81
2023/08/23 01:40:10;;;;;;;22.70;20.25;;;;;;;16.98;73.55;101391.41;690883;28;961;-81
2023/08/23 01:40:32;;;;;;;22.17;19.95;;;;;;;16.93;73.79;101382.59;684740;28;1571;-81
2023/08/23 01:40:55;;;;;;;22.30;20.00;;;;;;;17.00;73.75;101399.34;677213;29;1416;-81
2023/08/23 01:41:16;;;;;;;21.98;19.67;;;;;;;16.94;73.73;101389.63;685018;28;1587;-81
2023/08/23 01:41:38;;;;;;;22.55;19.48;;;;;;;16.95;73.77;101396.66;685209;28;1181;-81
2023/08/23 01:42:00;;;;;;;22.65;18.88;;;;;;;16.94;73.71;101389.63;682695;29;1065;-81
2023/08/23 01:42:21;;;;;;;22.80;19.90;;;;;;;16.98;73.51;101391.41;677891;29;1459;-82
2023/08/23 01:42:43;;;;;;;22.30;19.90;;;;;;;16.96;73.70;101395.78;688060;28;1249;-81
2023/08/23 01:43:04;;;;;;;23.60;21.10;;;;;;;17.04;73.84;101405.56;685296;28;1179;-81
2023/08/23 01:43:26;;;;;;;22.42;20.02;;;;;;;17.05;73.83;101412.59;683043;28;1476;-81
2023/08/23 01:43:47;;;;;;;21.63;19.33;;;;;;;17.05;73.92;101409.94;682278;28;1709;-82
2023/08/23 01:44:08;;;;;;;20.00;17.95;;;;;;;16.96;73.80;101387.88;685471;28;1086;-81
2023/08/23 01:44:29;;;;;;;23.17;18.80;;;;;;;16.94;73.72;101394.91;687966;28;1872;-81
2023/08/23 01:44:53;;;;;;;23.67;18.87;;;;;;;16.92;73.75;101388.75;685186;28;1158;-83
2023/08/23 01:45:16;;;;;;;27.63;19.73;;;;;;;17.01;73.61;101401.13;684472;28;1250;-82
2023/08/23 01:45:37;;;;;;;23.42;18.83;;;;;;;16.95;73.76;101388.75;685577;28;1304;-82
2023/08/23 01:45:57;;;;;;;23.88;18.85;;;;;;;17.02;73.63;101402.03;684590;28;1280;-82
2023/08/23 01:46:18;;;;;;;20.60;18.40;;;;;;;16.96;73.57;101403.72;687885;28;1373;-82
2023/08/23 01:46:39;;;;;;;22.70;18.97;;;;;;;16.90;73.84;101382.53;685013;28;1494;-82
2023/08/23 01:46:59;;;;;;;24.70;19.20;;;;;;;16.97;73.68;101394.06;682516;29;1150;-81
2023/08/23 01:47:20;;;;;;;25.40;18.65;;;;;;;16.96;73.67;101400.19;682630;29;1089;-82
2023/08/23 01:47:41;;;;;;;21.77;17.45;;;;;;;16.92;73.54;101396.66;683839;28;1473;-81
2023/08/23 01:48:01;;;;;;;19.53;17.30;;;;;;;16.81;73.66;101377.16;682345;29;1962;-82
2023/08/23 01:48:23;;;;;;;20.85;18.55;;;;;;;16.98;73.60;101404.59;690586;28;1346;-82